Terminal Aerodrome Forecast
Issued by NWS

Home | Current Version | Previous Version | Text Only | Print | Product List | Glossary On
Versions: 1 2 3 4 5 6 7 8 9 10 11 12 13 14 15 16 17 18 19 20 21 22 23 24 25 26 27 28 29 30 31
935
FTUS41 KOKX 162344 CCA
TAFSWF
TAF COR
KSWF 162344Z 1700/1806 VRB03KT P6SM SCT070
     FM170800 VRB02KT 2SM BR SKC
     FM171200 VRB03KT P6SM FEW250
     FM171700 25005KT P6SM FEW250
     FM172200 22006KT P6SM SCT250
     FM180000 18005KT P6SM SCT040 BKN150
      AMD NOT SKED=

USA.gov is the U.S. government's official web portal to all federal, state and local government web resources and services.